Time;durP1;ratioP1;P1;durP2;ratioP2;P2;SDS_P1;SDS_P2;PMS_P1;PMS_P2;Temp;Humidity;BMP_temperature;BMP_pressure;BME280_temperature;BME280_humidity;BME280_pressure;Samples;Min_cycle;Max_cycle;Signal;HPM_P1;HPM_P2
2021/10/20 00:08:15;;;;;;;8.03;7.17;;;;;;;10.65;100.00;100586.94;20969328;28;20227;-68
2021/10/20 00:28:17;;;;;;;8.67;7.73;;;;;;;10.78;100.00;100556.75;21090599;27;20575;-67
2021/10/20 00:38:20;;;;;;;7.67;6.97;;;;;;;10.86;100.00;100526.94;21136877;27;20228;-65
2021/10/20 00:48:25;;;;;;;8.07;7.30;;;;;;;10.87;100.00;100509.09;21142059;27;20570;-67
2021/10/20 00:58:29;;;;;;;7.93;6.93;;;;;;;10.93;100.00;100490.88;21140937;27;20642;-68
2021/10/20 01:08:35;;;;;;;8.07;7.33;;;;;;;11.05;100.00;100490.09;21140321;27;20305;-66
2021/10/20 01:18:39;;;;;;;8.40;7.53;;;;;;;11.18;100.00;100477.69;21139255;27;20237;-66
2021/10/20 01:28:45;;;;;;;8.67;7.87;;;;;;;11.32;100.00;100463.44;21138621;27;20221;-67
2021/10/20 01:38:51;;;;;;;8.07;7.37;;;;;;;11.35;100.00;100457.88;21086077;27;20241;-67
2021/10/20 01:48:56;;;;;;;7.87;6.93;;;;;;;11.46;100.00;100454.53;21063193;28;20655;-65
2021/10/20 02:09:01;;;;;;;8.57;7.67;;;;;;;11.65;100.00;100427.41;21060720;27;20584;-68
2021/10/20 02:19:04;;;;;;;7.93;7.10;;;;;;;11.57;100.00;100413.72;21142750;27;20221;-67
2021/10/20 02:29:11;;;;;;;8.13;7.33;;;;;;;11.47;100.00;100433.00;21141517;27;20312;-66
2021/10/20 02:39:14;;;;;;;7.70;6.77;;;;;;;11.43;100.00;100398.59;21141353;27;20776;-67
2021/10/20 02:49:19;;;;;;;7.90;7.20;;;;;;;11.36;100.00;100391.94;21139586;27;20289;-66
2021/10/20 02:59:23;;;;;;;8.93;7.10;;;;;;;11.32;100.00;100395.78;21139947;27;20635;-67
2021/10/20 03:09:28;;;;;;;7.60;6.90;;;;;;;11.31;100.00;100359.34;21139058;27;20252;-67
2021/10/20 03:19:32;;;;;;;7.70;7.00;;;;;;;11.36;100.00;100349.19;21086568;27;20661;-67
2021/10/20 03:29:37;;;;;;;8.77;7.17;;;;;;;11.39;100.00;100349.84;21081710;28;20245;-64
2021/10/20 03:39:40;;;;;;;6.90;6.30;;;;;;;11.51;100.00;100348.16;21080718;28;20308;-67
2021/10/20 03:49:45;;;;;;;7.57;6.80;;;;;;;11.63;100.00;100333.97;21079965;28;20214;-66
2021/10/20 03:59:49;;;;;;;7.70;7.10;;;;;;;11.65;100.00;100318.69;21079197;28;20247;-66
2021/10/20 04:09:54;;;;;;;8.40;7.60;;;;;;;11.63;100.00;100299.22;21077303;28;20218;-67
2021/10/20 04:19:58;;;;;;;6.73;6.10;;;;;;;11.79;100.00;100289.22;21077291;28;20255;-67
2021/10/20 04:30:03;;;;;;;5.90;5.33;;;;;;;11.90;100.00;100278.63;21064252;28;20232;-67
2021/10/20 04:40:09;;;;;;;6.37;5.87;;;;;;;12.02;100.00;100268.00;21072954;28;20239;-66
2021/10/20 04:50:14;;;;;;;6.60;5.33;;;;;;;12.10;100.00;100254.94;21073722;28;20275;-67
2021/10/20 05:00:18;;;;;;;5.67;5.20;;;;;;;12.22;100.00;100243.34;21072313;28;20370;-67
2021/10/20 05:10:25;;;;;;;5.17;4.77;;;;;;;12.37;100.00;100239.56;21068567;28;20229;-67
2021/10/20 05:20:29;;;;;;;6.47;5.87;;;;;;;12.45;100.00;100214.91;21072810;28;20228;-68
2021/10/20 05:30:34;;;;;;;6.10;5.60;;;;;;;12.53;100.00;100216.09;21069338;28;20257;-71
2021/10/20 05:40:38;;;;;;;5.30;4.77;;;;;;;12.65;100.00;100224.19;21069423;28;20252;-71
2021/10/20 05:50:43;;;;;;;5.63;5.13;;;;;;;12.69;100.00;100215.78;21069133;28;20658;-71
2021/10/20 06:00:47;;;;;;;6.33;5.53;;;;;;;12.76;100.00;100211.69;21070516;28;20235;-71
2021/10/20 06:10:52;;;;;;;6.50;5.73;;;;;;;12.82;100.00;100221.06;21069109;28;20216;-68
2021/10/20 06:20:57;;;;;;;6.20;5.60;;;;;;;12.88;100.00;100209.91;21069978;28;20308;-71
2021/10/20 06:40:58;;;;;;;6.17;5.67;;;;;;;13.04;100.00;100205.09;21204377;27;20564;-72
2021/10/20 06:51:01;;;;;;;6.83;6.13;;;;;;;13.41;100.00;100191.56;21227604;27;20246;-72
2021/10/20 07:01:06;;;;;;;6.43;5.83;;;;;;;13.66;100.00;100184.16;21141853;27;20661;-72
2021/10/20 07:11:10;;;;;;;6.30;5.77;;;;;;;13.75;100.00;100185.28;21122771;27;20236;-71
2021/10/20 07:21:15;;;;;;;5.73;5.23;;;;;;;14.15;100.00;100182.03;21140465;27;20862;-67
2021/10/20 07:31:19;;;;;;;5.67;5.10;;;;;;;15.09;100.00;100158.06;21139613;27;20283;-72
2021/10/20 07:41:24;;;;;;;5.73;4.83;;;;;;;15.66;100.00;100172.84;21138822;27;20247;-69
2021/10/20 07:51:27;;;;;;;6.27;4.80;;;;;;;15.60;100.00;100158.06;21086693;27;20225;-72
2021/10/20 08:01:32;;;;;;;5.07;4.67;;;;;;;16.03;100.00;100165.91;21081398;28;20225;-70
2021/10/20 08:11:36;;;;;;;5.13;4.57;;;;;;;16.57;100.00;100153.81;21080002;28;20228;-68
2021/10/20 08:21:41;;;;;;;4.33;4.03;;;;;;;16.91;100.00;100128.16;21079056;28;20237;-70
2021/10/20 08:31:45;;;;;;;4.53;4.13;;;;;;;16.99;100.00;100135.53;21078573;28;20226;-69
2021/10/20 08:41:50;;;;;;;88.97;17.97;;;;;;;17.16;100.00;100117.75;21078054;28;20231;-67
2021/10/20 08:51:54;;;;;;;76.80;14.40;;;;;;;17.27;100.00;100093.31;21077310;28;20850;-70
2021/10/20 09:02:03;;;;;;;6.13;5.53;;;;;;;17.37;100.00;100094.16;21075766;28;20255;-70
2021/10/20 09:12:07;;;;;;;6.20;5.40;;;;;;;17.62;100.00;100087.22;21075343;28;20260;-70
2021/10/20 09:22:13;;;;;;;4.57;4.20;;;;;;;17.80;100.00;100085.44;21075286;28;20350;-70
2021/10/20 09:32:19;;;;;;;5.10;4.60;;;;;;;17.88;100.00;100081.97;21074184;28;20309;-70
2021/10/20 09:42:24;;;;;;;4.30;4.00;;;;;;;18.15;100.00;100079.25;21073502;28;20563;-70
2021/10/20 09:52:27;;;;;;;5.93;4.40;;;;;;;18.23;100.00;100063.13;21072810;28;20218;-71
2021/10/20 10:02:32;;;;;;;4.50;4.10;;;;;;;18.43;100.00;100060.28;21072176;28;20215;-71
2021/10/20 10:12:36;;;;;;;4.43;4.03;;;;;;;18.94;100.00;100033.38;21071047;28;20301;-70
2021/10/20 10:22:52;;;;;;;4.30;3.57;;;;;;;19.22;100.00;100031.31;21070943;28;20300;-69
2021/10/20 10:32:59;;;;;;;4.40;4.00;;;;;;;19.43;100.00;100017.41;21070347;28;20225;-70
2021/10/20 10:43:07;;;;;;;3.77;3.47;;;;;;;19.74;100.00;100026.66;21051555;28;20324;-70
2021/10/20 10:53:27;;;;;;;3.37;3.17;;;;;;;20.01;100.00;100001.19;21069367;28;20233;-71
2021/10/20 11:03:33;;;;;;;4.03;3.67;;;;;;;19.94;100.00;99991.16;21069070;28;20225;-70
2021/10/20 11:13:38;;;;;;;4.00;3.63;;;;;;;19.64;100.00;99977.25;21068109;28;20232;-71
2021/10/20 11:23:46;;;;;;;3.77;3.13;;;;;;;19.58;100.00;99967.06;21077871;28;20251;-71
2021/10/20 11:33:49;;;;;;;3.70;3.40;;;;;;;20.00;100.00;99958.00;21083309;28;20657;-71
2021/10/20 11:43:57;;;;;;;3.97;3.67;;;;;;;20.28;100.00;99935.00;21082996;28;20779;-67
2021/10/20 11:54:06;;;;;;;4.23;3.50;;;;;;;20.70;100.00;99923.09;21082015;28;20245;-70
2021/10/20 12:04:11;;;;;;;3.50;3.30;;;;;;;20.85;100.00;99902.38;21140067;27;20233;-69
2021/10/20 12:14:16;;;;;;;3.73;3.43;;;;;;;20.82;100.00;99897.28;21164916;27;20235;-70
2021/10/20 12:24:23;;;;;;;3.77;3.30;;;;;;;21.02;98.39;99870.59;21145604;27;20226;-65
2021/10/20 12:34:27;;;;;;;5.57;3.90;;;;;;;20.96;100.00;99845.03;21163010;27;20232;-70
2021/10/20 12:44:34;;;;;;;4.27;3.90;;;;;;;20.76;97.32;99822.06;21144237;27;20270;-71
2021/10/20 12:54:38;;;;;;;6.53;4.30;;;;;;;20.69;94.25;99804.81;21161641;27;20305;-71
2021/10/20 13:04:50;;;;;;;13.97;4.97;;;;;;;20.63;91.65;99789.25;21125676;27;20222;-71
2021/10/20 13:14:55;;;;;;;4.13;3.83;;;;;;;20.49;97.30;99772.69;21160141;27;20713;-71
2021/10/20 13:25:00;;;;;;;4.27;3.87;;;;;;;20.38;97.27;99756.81;21159034;27;20278;-69
2021/10/20 13:35:05;;;;;;;4.80;3.40;;;;;;;20.19;100.00;99731.94;21157007;27;20587;-71
2021/10/20 13:45:11;;;;;;;3.50;3.20;;;;;;;19.96;100.00;99719.16;21156592;27;20225;-67
2021/10/20 13:55:17;;;;;;;4.53;3.50;;;;;;;19.76;100.00;99716.00;21156495;27;20229;-69
2021/10/20 14:05:22;;;;;;;5.13;3.30;;;;;;;19.58;100.00;99690.13;21156126;27;20225;-69
2021/10/20 14:15:26;;;;;;;3.10;2.80;;;;;;;19.32;100.00;99704.66;21155322;27;20250;-70
2021/10/20 14:25:31;;;;;;;6.00;3.77;;;;;;;18.97;100.00;99691.47;21154848;27;20222;-72
2021/10/20 14:35:35;;;;;;;8.60;4.70;;;;;;;18.72;100.00;99693.28;21149656;27;20228;-75
2021/10/20 14:45:42;;;;;;;8.30;5.67;;;;;;;18.53;100.00;99699.81;21057869;27;20220;-70
2021/10/20 14:55:47;;;;;;;6.00;3.57;;;;;;;18.18;100.00;99668.44;21076259;27;20240;-72
2021/10/20 15:05:52;;;;;;;5.43;3.77;;;;;;;17.74;100.00;99648.00;21097217;27;20918;-74
2021/10/20 15:15:56;;;;;;;3.60;3.30;;;;;;;17.47;100.00;99630.13;21038333;27;20220;-73
2021/10/20 15:26:02;;;;;;;4.10;3.73;;;;;;;17.12;100.00;99615.72;21051724;27;20280;-74
2021/10/20 15:36:06;;;;;;;3.50;3.20;;;;;;;16.92;100.00;99627.69;21040325;28;20229;-72
2021/10/20 15:46:11;;;;;;;4.47;3.20;;;;;;;16.74;100.00;99614.25;21030201;28;20240;-73
2021/10/20 15:56:16;;;;;;;4.57;3.40;;;;;;;16.64;100.00;99610.78;21043247;28;20233;-74
2021/10/20 16:06:22;;;;;;;6.37;4.07;;;;;;;16.52;100.00;99611.97;21025655;28;20359;-73
2021/10/20 16:16:28;;;;;;;4.10;3.50;;;;;;;16.55;100.00;99598.19;21009603;28;20324;-73
2021/10/20 16:26:35;;;;;;;5.83;4.60;;;;;;;16.73;100.00;99588.28;21048496;28;20228;-73
2021/10/20 16:36:40;;;;;;;4.00;3.70;;;;;;;16.85;100.00;99595.13;21019008;27;20353;-70
2021/10/20 16:46:46;;;;;;;4.07;3.63;;;;;;;16.91;100.00;99586.41;21025678;27;20252;-73
2021/10/20 16:56:52;;;;;;;7.30;4.53;;;;;;;16.91;100.00;99590.94;21012679;27;20234;-72
2021/10/20 17:07:08;;;;;;;5.30;4.80;;;;;;;16.99;100.00;99603.66;21012550;27;20225;-60
2021/10/20 17:17:12;;;;;;;5.03;4.63;;;;;;;16.96;100.00;99595.88;21060839;27;20225;-72
2021/10/20 17:27:20;;;;;;;4.47;4.07;;;;;;;16.91;100.00;99583.72;21086346;27;20219;-66
2021/10/20 17:37:24;;;;;;;7.27;4.93;;;;;;;17.02;100.00;99571.00;21069755;27;20337;-63
2021/10/20 17:47:31;;;;;;;4.90;4.40;;;;;;;17.05;100.00;99546.41;21061127;27;20264;-67
2021/10/20 17:57:35;;;;;;;4.97;4.53;;;;;;;16.78;100.00;99542.88;21051583;27;20369;-67
2021/10/20 18:07:45;;;;;;;5.10;4.33;;;;;;;16.57;100.00;99523.47;21093836;27;20294;-69
2021/10/20 18:17:55;;;;;;;5.20;4.63;;;;;;;16.30;100.00;99515.50;21052702;27;20232;-63
2021/10/20 18:28:00;;;;;;;4.07;3.77;;;;;;;16.25;100.00;99493.59;21049628;27;20232;-64
2021/10/20 18:38:05;;;;;;;3.87;3.57;;;;;;;16.20;100.00;99494.88;21083219;27;20237;-64
2021/10/20 18:48:10;;;;;;;4.80;4.30;;;;;;;16.13;100.00;99501.03;21066500;27;20284;-65
2021/10/20 18:58:15;;;;;;;4.90;4.37;;;;;;;15.91;100.00;99491.59;21089404;27;20345;-64
2021/10/20 19:08:22;;;;;;;3.63;3.33;;;;;;;15.91;100.00;99471.91;21070384;27;20331;-65
2021/10/20 19:18:26;;;;;;;4.07;3.63;;;;;;;15.89;100.00;99434.38;21086054;27;21784;-63
2021/10/20 19:28:32;;;;;;;5.70;4.03;;;;;;;15.53;100.00;99430.81;21066535;27;20214;-66
2021/10/20 19:38:36;;;;;;;5.00;3.67;;;;;;;15.21;100.00;99428.59;21076499;27;20248;-66
2021/10/20 19:48:42;;;;;;;4.37;3.97;;;;;;;14.91;100.00;99392.09;21083334;27;20222;-67
2021/10/20 19:58:46;;;;;;;4.37;3.93;;;;;;;14.97;100.00;99396.06;21068496;27;20883;-69
2021/10/20 20:08:56;;;;;;;5.67;4.10;;;;;;;15.24;100.00;99387.97;21094272;27;20234;-67
2021/10/20 20:19:00;;;;;;;4.33;3.93;;;;;;;15.30;100.00;99397.28;21080231;27;20241;-67
2021/10/20 20:29:07;;;;;;;5.20;4.30;;;;;;;15.46;100.00;99376.75;21072974;27;20225;-71
2021/10/20 20:39:12;;;;;;;4.77;3.80;;;;;;;15.72;100.00;99379.56;21073004;27;21012;-70
2021/10/20 20:49:19;;;;;;;7.13;4.80;;;;;;;15.95;100.00;99397.94;21070903;27;20248;-69
2021/10/20 20:59:25;;;;;;;4.37;3.97;;;;;;;16.04;100.00;99375.50;21064762;27;21010;-72
2021/10/20 21:09:30;;;;;;;4.30;3.90;;;;;;;16.15;100.00;99351.84;21086508;27;20229;-70
2021/10/20 21:19:33;;;;;;;6.37;4.37;;;;;;;16.27;100.00;99359.66;21075820;27;20370;-67
2021/10/20 21:29:39;;;;;;;4.97;4.30;;;;;;;16.33;98.35;99367.09;21083164;27;20738;-72
2021/10/20 21:39:43;;;;;;;5.13;4.40;;;;;;;16.40;99.56;99357.41;21083684;27;20233;-72
2021/10/20 21:49:48;;;;;;;6.03;4.67;;;;;;;16.39;95.56;99331.47;21079181;27;20691;-68
2021/10/20 21:59:52;;;;;;;5.93;4.80;;;;;;;16.39;97.69;99331.47;21087320;27;20638;-69
2021/10/20 22:09:58;;;;;;;8.23;5.20;;;;;;;16.38;94.90;99321.72;21062849;27;20222;-62
2021/10/20 22:20:16;;;;;;;6.53;4.80;;;;;;;16.33;94.51;99315.94;21119415;28;20233;-61
2021/10/20 22:30:21;;;;;;;6.13;5.00;;;;;;;16.21;94.21;99318.06;21097299;28;20230;-62
2021/10/20 22:40:25;;;;;;;4.73;4.33;;;;;;;16.00;96.59;99326.50;21064046;28;20284;-61
2021/10/20 22:50:30;;;;;;;6.07;5.20;;;;;;;15.81;96.81;99300.66;21039309;28;20245;-62
2021/10/20 23:00:34;;;;;;;5.90;5.33;;;;;;;15.76;98.90;99323.63;21052928;28;20241;-61
2021/10/20 23:10:39;;;;;;;6.67;5.30;;;;;;;15.63;97.78;99304.34;21127147;28;20229;-63
2021/10/20 23:20:42;;;;;;;5.80;4.97;;;;;;;15.33;99.49;99302.91;21141041;28;20229;-61
2021/10/20 23:30:47;;;;;;;5.33;4.83;;;;;;;15.09;100.00;99314.25;21152484;28;20213;-62
2021/10/20 23:40:51;;;;;;;5.97;5.40;;;;;;;14.91;100.00;99297.25;21137102;28;20225;-62
2021/10/20 23:50:56;;;;;;;7.13;4.73;;;;;;;14.73;100.00;99291.84;21154761;28;20329;-61
